Time;durP1;ratioP1;P1;durP2;ratioP2;P2;SDS_P1;SDS_P2;PMS_P1;PMS_P2;Temp;Humidity;BMP_temperature;BMP_pressure;BME280_temperature;BME280_humidity;BME280_pressure;Samples;Min_cycle;Max_cycle;Signal;HPM_P1;HPM_P2
2022/07/09 00:02:58;;;;;;;3.67;3.37;;;15.90;1.00;;;;;;6274780;28;20287;-57
2022/07/09 00:06:02;;;;;;;5.80;3.10;;;15.90;1.00;;;;;;6283574;28;20233;-57
2022/07/09 00:09:07;;;;;;;5.63;3.50;;;15.80;1.00;;;;;;6279789;28;20284;-56
2022/07/09 00:12:10;;;;;;;3.30;3.00;;;15.80;1.00;;;;;;6275486;28;20579;-56
2022/07/09 00:15:13;;;;;;;6.17;3.53;;;15.70;1.00;;;;;;6279008;28;20243;-56
2022/07/09 00:18:16;;;;;;;3.77;3.33;;;15.70;1.00;;;;;;6279309;28;20267;-57
2022/07/09 00:21:19;;;;;;;4.77;3.60;;;15.60;1.00;;;;;;6271363;28;20854;-57
2022/07/09 00:24:23;;;;;;;3.47;3.20;;;15.60;1.00;;;;;;6274958;28;20241;-56
2022/07/09 00:27:26;;;;;;;5.90;3.33;;;15.50;1.00;;;;;;6286101;28;20378;-56
2022/07/09 00:30:29;;;;;;;5.90;3.77;;;15.60;1.00;;;;;;6300652;28;20246;-59
2022/07/09 00:33:34;;;;;;;3.77;3.30;;;15.40;1.00;;;;;;6280732;28;20281;-56
2022/07/09 00:36:36;;;;;;;6.07;3.50;;;15.40;1.00;;;;;;6284167;28;20906;-57
2022/07/09 00:39:48;;;;;;;4.23;3.43;;;15.30;1.00;;;;;;6273163;28;20718;-56
2022/07/09 00:42:51;;;;;;;4.87;3.80;;;15.20;1.00;;;;;;6282390;28;20261;-56
2022/07/09 00:45:53;;;;;;;3.73;3.43;;;15.20;1.00;;;;;;6277966;28;20340;-56
2022/07/09 00:49:06;;;;;;;5.20;3.80;;;15.20;1.00;;;;;;6293609;28;20237;-57
2022/07/09 00:52:17;;;;;;;4.03;3.70;;;15.10;1.00;;;;;;6273359;28;20253;-56
2022/07/09 00:55:21;;;;;;;6.10;4.10;;;15.10;1.00;;;;;;6274437;28;20243;-55
2022/07/09 00:58:35;;;;;;;4.30;3.90;;;15.10;1.00;;;;;;6278885;28;20379;-57
2022/07/09 01:01:38;;;;;;;8.60;4.03;;;15.00;1.00;;;;;;6278250;28;20412;-56
2022/07/09 01:04:42;;;;;;;8.30;4.13;;;15.00;1.00;;;;;;6276591;28;20229;-56
2022/07/09 01:07:46;;;;;;;7.40;4.30;;;14.90;1.00;;;;;;6272400;28;20396;-57
2022/07/09 01:10:52;;;;;;;9.03;3.77;;;14.90;1.00;;;;;;6278410;28;20793;-56
2022/07/09 01:13:55;;;;;;;5.90;4.03;;;14.80;1.00;;;;;;6283214;28;20243;-56
2022/07/09 01:16:59;;;;;;;7.77;4.50;;;14.80;1.00;;;;;;6279408;28;20328;-57
2022/07/09 01:20:02;;;;;;;4.50;4.17;;;14.80;1.00;;;;;;6295564;28;20240;-56
2022/07/09 01:23:07;;;;;;;9.33;4.50;;;14.70;1.00;;;;;;6272423;28;20382;-55
2022/07/09 01:26:10;;;;;;;7.50;4.37;;;14.60;1.00;;;;;;6272252;28;20308;-55
2022/07/09 01:29:14;;;;;;;6.63;4.57;;;14.60;1.00;;;;;;6277483;28;20241;-56
2022/07/09 01:32:17;;;;;;;9.40;4.20;;;14.50;1.00;;;;;;6285595;28;20729;-56
2022/07/09 01:35:21;;;;;;;9.43;4.77;;;14.50;1.00;;;;;;6276492;28;20390;-56
2022/07/09 01:38:25;;;;;;;9.53;4.43;;;14.50;1.00;;;;;;6267481;28;20317;-56
2022/07/09 01:41:28;;;;;;;7.13;4.40;;;14.50;1.00;;;;;;6272816;28;20643;-56
2022/07/09 01:44:31;;;;;;;5.70;4.40;;;14.40;1.00;;;;;;6282271;28;20438;-57
2022/07/09 01:47:34;;;;;;;8.57;4.53;;;14.40;1.00;;;;;;6274926;28;20702;-55
2022/07/09 01:50:36;;;;;;;6.70;4.30;;;14.30;1.00;;;;;;6289920;28;20379;-56
2022/07/09 01:53:47;;;;;;;5.67;4.37;;;14.30;1.00;;;;;;6279733;28;20237;-57
2022/07/09 01:56:50;;;;;;;6.23;4.57;;;14.30;1.00;;;;;;6291726;28;20741;-56
2022/07/09 01:59:54;;;;;;;4.97;4.10;;;14.30;1.00;;;;;;6301293;28;20238;-56
2022/07/09 02:02:57;;;;;;;7.60;3.90;;;14.20;1.00;;;;;;6276993;28;20630;-56
2022/07/09 02:06:00;;;;;;;11.80;4.93;;;14.10;1.00;;;;;;6275645;28;20328;-57
2022/07/09 02:09:04;;;;;;;6.27;4.60;;;14.10;1.00;;;;;;6285808;28;20415;-56
2022/07/09 02:12:08;;;;;;;7.27;4.57;;;14.10;1.00;;;;;;6274669;28;20376;-56
2022/07/09 02:15:12;;;;;;;5.57;5.07;;;14.10;1.00;;;;;;6273860;28;20276;-56
2022/07/09 02:18:15;;;;;;;5.77;4.97;;;14.00;1.00;;;;;;6248449;28;20477;-56
2022/07/09 02:21:18;;;;;;;10.43;5.37;;;14.00;1.00;;;;;;6275268;28;20229;-56
2022/07/09 02:24:23;;;;;;;6.90;4.83;;;13.90;1.00;;;;;;6269183;28;20620;-56
2022/07/09 02:27:25;;;;;;;5.33;4.83;;;13.90;1.00;;;;;;6276219;28;20315;-56
2022/07/09 02:30:28;;;;;;;6.67;4.90;;;13.80;1.00;;;;;;6294741;28;21065;-57
2022/07/09 02:33:31;;;;;;;8.00;5.07;;;13.80;1.00;;;;;;6272796;28;20318;-57
2022/07/09 02:36:34;;;;;;;7.33;5.03;;;13.70;1.00;;;;;;6281325;28;20324;-56
2022/07/09 02:39:39;;;;;;;11.93;5.33;;;13.70;1.00;;;;;;6274392;28;20302;-56
2022/07/09 02:42:42;;;;;;;9.53;4.80;;;13.70;1.00;;;;;;6271862;28;20701;-56
2022/07/09 02:45:44;;;;;;;6.20;4.70;;;13.60;1.00;;;;;;6276761;28;20685;-57
2022/07/09 02:48:47;;;;;;;5.00;4.60;;;13.70;1.00;;;;;;6280580;28;20287;-55
2022/07/09 02:51:52;;;;;;;6.13;4.37;;;13.70;1.00;;;;;;6267394;28;20638;-57
2022/07/09 02:54:56;;;;;;;9.17;4.80;;;13.70;1.00;;;;;;6268596;28;20243;-56
2022/07/09 02:57:59;;;;;;;9.13;5.10;;;13.70;1.00;;;;;;6281263;28;20252;-57
2022/07/09 03:01:05;;;;;;;6.27;5.17;;;13.80;1.00;;;;;;6292860;28;20237;-56
2022/07/09 03:04:09;;;;;;;8.27;5.00;;;13.70;1.00;;;;;;6282944;28;20245;-56
2022/07/09 03:07:13;;;;;;;6.53;5.13;;;13.80;1.00;;;;;;6275141;28;20721;-55
2022/07/09 03:10:19;;;;;;;8.47;5.00;;;13.80;1.00;;;;;;6276871;28;20369;-56
2022/07/09 03:13:22;;;;;;;6.53;5.33;;;13.90;1.00;;;;;;6275475;28;20659;-56
2022/07/09 03:16:27;;;;;;;7.03;5.00;;;13.90;1.00;;;;;;6281587;28;20233;-58
2022/07/09 03:19:30;;;;;;;6.23;5.00;;;13.90;1.00;;;;;;6281964;28;20265;-56
2022/07/09 03:22:32;;;;;;;7.97;5.13;;;13.90;1.00;;;;;;6273729;28;20453;-56
2022/07/09 03:25:37;;;;;;;6.83;5.30;;;14.00;1.00;;;;;;6306353;28;20340;-58
2022/07/09 03:28:43;;;;;;;5.67;4.90;;;14.00;1.00;;;;;;6291359;28;20704;-55
2022/07/09 03:31:45;;;;;;;8.73;5.13;;;14.10;1.00;;;;;;6272782;28;20238;-56
2022/07/09 03:34:48;;;;;;;7.37;4.83;;;14.10;1.00;;;;;;6285309;28;20280;-56
2022/07/09 03:37:51;;;;;;;5.57;5.03;;;14.10;1.00;;;;;;6291297;28;20740;-56
2022/07/09 03:40:56;;;;;;;7.30;4.67;;;14.10;1.00;;;;;;6276541;28;20611;-56
2022/07/09 03:43:59;;;;;;;6.43;4.93;;;14.10;1.00;;;;;;6288347;28;20481;-56
2022/07/09 03:47:03;;;;;;;7.90;4.33;;;14.20;1.00;;;;;;6283165;28;20233;-56
2022/07/09 03:50:07;;;;;;;7.17;5.10;;;14.20;1.00;;;;;;6281026;28;20522;-55
2022/07/09 03:53:10;;;;;;;8.50;5.00;;;14.20;1.00;;;;;;6278269;28;20775;-57
2022/07/09 03:56:14;;;;;;;5.77;4.63;;;14.20;1.00;;;;;;6278587;28;20229;-57
2022/07/09 03:59:18;;;;;;;7.33;4.90;;;14.20;1.00;;;;;;6287339;28;20333;-57
2022/07/09 04:02:21;;;;;;;6.23;4.70;;;14.30;1.00;;;;;;6281051;28;20705;-56
2022/07/09 04:05:23;;;;;;;6.37;4.57;;;14.20;1.00;;;;;;6286576;28;20721;-58
2022/07/09 04:08:35;;;;;;;6.40;4.23;;;14.30;1.00;;;;;;6277316;28;20403;-57
2022/07/09 04:11:41;;;;;;;4.97;4.40;;;14.30;1.00;;;;;;6289173;28;20343;-55
2022/07/09 04:14:44;;;;;;;4.80;4.27;;;14.40;1.00;;;;;;6283466;28;20383;-57
2022/07/09 04:17:47;;;;;;;6.13;4.23;;;14.40;1.00;;;;;;6280205;28;20272;-56
2022/07/09 04:20:50;;;;;;;8.07;4.43;;;14.40;1.00;;;;;;6280392;28;20248;-55
2022/07/09 04:23:53;;;;;;;6.00;4.70;;;14.50;1.00;;;;;;6278177;28;20714;-56
2022/07/09 04:26:57;;;;;;;5.83;4.20;;;14.50;1.00;;;;;;6283209;28;20230;-56
2022/07/09 04:30:00;;;;;;;5.73;4.77;;;14.60;1.00;;;;;;6281928;28;20233;-56
2022/07/09 04:33:03;;;;;;;7.83;4.80;;;14.60;1.00;;;;;;6279610;28;20495;-57
2022/07/09 04:36:07;;;;;;;5.90;4.73;;;14.70;1.00;;;;;;6285936;28;20784;-55
2022/07/09 04:39:10;;;;;;;7.83;4.63;;;14.80;1.00;;;;;;6286248;28;20637;-56
2022/07/09 04:42:15;;;;;;;7.00;4.57;;;14.90;1.00;;;;;;6279307;28;20315;-56
2022/07/09 04:45:18;;;;;;;5.17;4.43;;;14.90;1.00;;;;;;6283724;28;20720;-56
2022/07/09 04:48:20;;;;;;;5.67;4.77;;;14.90;1.00;;;;;;6274503;28;20673;-56
2022/07/09 04:51:23;;;;;;;4.83;4.40;;;15.00;1.00;;;;;;6285352;28;20240;-57
2022/07/09 04:54:26;;;;;;;5.50;4.40;;;15.00;1.00;;;;;;6284209;28;20259;-57
2022/07/09 04:57:35;;;;;;;5.80;4.17;;;15.10;1.00;;;;;;6290526;28;20808;-59
2022/07/09 05:00:38;;;;;;;5.90;4.33;;;15.00;1.00;;;;;;6281387;28;20324;-57
2022/07/09 05:03:41;;;;;;;4.47;4.27;;;15.10;1.00;;;;;;6287024;28;20222;-56
2022/07/09 05:06:44;;;;;;;5.00;4.60;;;15.10;1.00;;;;;;6260618;28;20301;-56
2022/07/09 05:09:47;;;;;;;7.23;4.00;;;15.10;1.00;;;;;;6261595;28;20238;-56
2022/07/09 05:12:51;;;;;;;5.07;3.83;;;15.10;1.00;;;;;;6276441;28;20257;-58
2022/07/09 05:15:54;;;;;;;7.07;4.40;;;15.10;1.00;;;;;;6281445;28;20725;-57
2022/07/09 05:18:57;;;;;;;5.33;4.03;;;15.10;1.00;;;;;;6276106;28;20229;-57
2022/07/09 05:22:01;;;;;;;7.23;4.20;;;15.10;1.00;;;;;;6279570;28;20234;-56
2022/07/09 05:25:05;;;;;;;4.90;4.50;;;15.20;1.00;;;;;;6290076;28;20464;-55
2022/07/09 05:28:09;;;;;;;4.67;4.23;;;15.00;1.00;;;;;;6284497;28;20242;-56
2022/07/09 05:31:13;;;;;;;6.77;4.17;;;15.10;1.00;;;;;;6284326;28;20311;-57
2022/07/09 05:34:35;;;;;;;5.60;4.30;;;15.10;1.00;;;;;;6279068;28;20280;-56
2022/07/09 05:37:42;;;;;;;7.00;4.23;;;15.20;1.00;;;;;;6276970;28;20459;-57
2022/07/09 05:40:45;;;;;;;4.73;3.90;;;15.30;1.00;;;;;;6289200;28;20321;-56
2022/07/09 05:43:54;;;;;;;5.17;3.90;;;15.30;1.00;;;;;;6288048;28;20652;-57
2022/07/09 05:46:57;;;;;;;4.43;3.90;;;15.40;1.00;;;;;;6273706;28;20253;-56
2022/07/09 05:50:00;;;;;;;6.97;4.40;;;15.50;1.00;;;;;;6286011;28;20241;-57
2022/07/09 05:53:04;;;;;;;6.00;4.17;;;15.60;1.00;;;;;;6291091;28;20354;-57
2022/07/09 05:56:07;;;;;;;7.87;4.10;;;15.70;1.00;;;;;;6280647;28;20753;-56
2022/07/09 05:59:12;;;;;;;5.43;4.40;;;15.90;1.00;;;;;;6289222;28;21000;-58
2022/07/09 06:02:15;;;;;;;11.40;4.63;;;16.00;1.00;;;;;;6279415;28;20225;-57
2022/07/09 06:05:19;;;;;;;4.60;4.00;;;16.10;1.00;;;;;;6280472;28;20241;-57
2022/07/09 06:08:23;;;;;;;5.13;4.10;;;16.20;1.00;;;;;;6281474;28;20618;-56
2022/07/09 06:11:25;;;;;;;5.27;4.03;;;16.30;1.00;;;;;;6265561;28;20236;-57
2022/07/09 06:14:31;;;;;;;7.60;4.17;;;16.40;1.00;;;;;;6297461;28;20327;-57
2022/07/09 06:17:34;;;;;;;5.77;4.27;;;16.50;1.00;;;;;;6279160;28;20491;-54
2022/07/09 06:20:37;;;;;;;3.87;3.57;;;16.50;1.00;;;;;;6282958;28;20316;-57
2022/07/09 06:23:42;;;;;;;5.00;4.17;;;16.50;1.00;;;;;;6283155;28;20719;-57
2022/07/09 06:26:46;;;;;;;6.47;4.20;;;16.50;1.00;;;;;;6284404;28;20225;-57
2022/07/09 06:29:51;;;;;;;4.40;4.00;;;16.60;1.00;;;;;;6283292;28;20304;-57
2022/07/09 06:32:54;;;;;;;4.87;4.10;;;16.70;1.00;;;;;;6278194;28;20282;-58
2022/07/09 06:35:57;;;;;;;6.00;4.03;;;16.70;1.00;;;;;;6288900;28;20240;-56
2022/07/09 06:42:20;;;;;;;4.30;3.83;;;16.80;1.00;;;;;;6278592;28;20229;-58
2022/07/09 06:45:24;;;;;;;5.47;3.77;;;16.90;1.00;;;;;;6268071;28;20343;-57
2022/07/09 06:48:33;;;;;;;4.00;3.70;;;17.00;1.00;;;;;;6277074;28;20252;-56
2022/07/09 06:51:40;;;;;;;4.27;3.97;;;17.10;1.00;;;;;;6278681;28;20448;-57
2022/07/09 06:54:43;;;;;;;7.07;4.00;;;17.20;1.00;;;;;;6280809;28;20233;-56
2022/07/09 06:57:46;;;;;;;5.00;4.20;;;17.10;1.00;;;;;;6287651;28;20347;-58
2022/07/09 07:00:50;;;;;;;4.37;4.07;;;17.20;1.00;;;;;;6281336;28;20233;-56
2022/07/09 07:03:53;;;;;;;5.23;4.30;;;17.30;1.00;;;;;;6286945;28;20232;-56
2022/07/09 07:06:56;;;;;;;5.30;4.10;;;17.40;1.00;;;;;;6290245;28;20233;-58
2022/07/09 07:09:59;;;;;;;6.53;4.57;;;17.60;1.00;;;;;;6284083;28;20848;-57
2022/07/09 07:13:03;;;;;;;4.70;3.87;;;17.70;1.00;;;;;;6286992;28;21467;-58
2022/07/09 07:16:08;;;;;;;5.30;3.97;;;17.80;1.00;;;;;;6290285;28;20294;-57
2022/07/09 07:19:12;;;;;;;4.00;3.70;;;17.80;1.00;;;;;;6285444;28;20237;-57
2022/07/09 07:22:15;;;;;;;5.43;3.60;;;17.90;1.00;;;;;;6281883;28;20371;-57
2022/07/09 07:25:18;;;;;;;5.37;3.93;;;18.00;1.00;;;;;;6290800;28;20660;-56
2022/07/09 07:28:21;;;;;;;5.00;4.50;;;18.10;1.00;;;;;;6284398;28;20321;-57
2022/07/09 07:31:27;;;;;;;5.13;3.87;;;18.00;1.00;;;;;;6292785;28;20337;-56
2022/07/09 07:34:30;;;;;;;4.03;3.73;;;17.80;1.00;;;;;;6279081;28;20624;-58
2022/07/09 07:37:33;;;;;;;6.33;4.03;;;17.70;1.00;;;;;;6274328;28;20812;-58
2022/07/09 07:40:36;;;;;;;5.13;3.43;;;17.70;1.00;;;;;;6295237;28;20721;-56
2022/07/09 07:43:39;;;;;;;5.00;3.70;;;17.90;1.00;;;;;;6294913;28;20387;-57
2022/07/09 07:46:43;;;;;;;4.27;3.97;;;18.00;1.00;;;;;;6281637;28;20233;-58
2022/07/09 07:49:46;;;;;;;4.93;3.80;;;18.00;1.00;;;;;;6286280;28;20302;-58
2022/07/09 07:52:56;;;;;;;5.03;4.03;;;18.00;1.00;;;;;;6278744;28;20732;-57
2022/07/09 07:56:02;;;;;;;4.03;3.63;;;18.00;1.00;;;;;;6294089;28;20291;-57
2022/07/09 07:59:05;;;;;;;4.23;3.40;;;18.20;1.00;;;;;;6286870;28;20323;-59
2022/07/09 08:02:09;;;;;;;3.97;3.57;;;18.30;1.00;;;;;;6283522;28;20291;-59
2022/07/09 08:05:14;;;;;;;5.13;3.37;;;18.30;1.00;;;;;;6274060;28;20626;-59
2022/07/09 08:08:18;;;;;;;5.83;3.37;;;18.30;1.00;;;;;;6283142;28;20286;-57
2022/07/09 08:11:21;;;;;;;4.63;3.20;;;18.40;1.00;;;;;;6286536;28;20263;-58
2022/07/09 08:14:24;;;;;;;3.50;3.30;;;18.30;1.00;;;;;;6293068;28;20229;-57
2022/07/09 08:17:28;;;;;;;6.10;3.50;;;18.30;1.00;;;;;;6278598;28;20241;-57
2022/07/09 08:20:32;;;;;;;4.03;3.73;;;18.20;1.00;;;;;;6289615;28;20720;-57
2022/07/09 08:23:51;;;;;;;3.83;3.50;;;18.20;1.00;;;;;;6285396;28;20233;-57
2022/07/09 08:26:54;;;;;;;4.27;3.97;;;18.20;1.00;;;;;;6287684;28;20241;-57
2022/07/09 08:29:57;;;;;;;3.90;3.53;;;18.30;1.00;;;;;;6280291;28;20619;-59
2022/07/09 08:33:05;;;;;;;3.40;3.20;;;18.50;1.00;;;;;;6283732;28;20475;-57
2022/07/09 08:36:24;;;;;;;4.07;3.47;;;18.50;1.00;;;;;;6288251;28;20228;-56
2022/07/09 08:39:27;;;;;;;7.63;3.83;;;18.50;1.00;;;;;;6289460;28;20282;-57
2022/07/09 08:42:31;;;;;;;3.97;3.57;;;18.50;1.00;;;;;;6287693;28;21129;-57
2022/07/09 08:45:36;;;;;;;6.00;4.50;;;18.40;1.00;;;;;;6288433;28;20593;-57
2022/07/09 08:48:41;;;;;;;4.37;3.93;;;18.50;1.00;;;;;;6282689;28;20801;-58
2022/07/09 08:51:46;;;;;;;4.60;3.97;;;18.40;1.00;;;;;;6284517;28;20535;-58
2022/07/09 08:54:53;;;;;;;5.10;4.03;;;18.40;1.00;;;;;;6283201;28;20917;-58
2022/07/09 08:58:00;;;;;;;5.23;3.90;;;18.60;1.00;;;;;;6281267;28;20264;-57
2022/07/09 09:01:04;;;;;;;4.10;3.80;;;18.70;1.00;;;;;;6282368;28;20441;-56
2022/07/09 09:04:09;;;;;;;5.93;3.67;;;18.80;1.00;;;;;;6283354;28;21125;-57
2022/07/09 09:07:14;;;;;;;3.87;3.60;;;18.90;1.00;;;;;;6277474;28;20225;-57
2022/07/09 09:10:23;;;;;;;3.90;3.60;;;18.90;1.00;;;;;;6287967;28;20237;-58
2022/07/09 09:13:26;;;;;;;4.30;3.90;;;18.90;1.00;;;;;;6286412;28;20241;-57
2022/07/09 09:16:30;;;;;;;6.93;4.00;;;18.80;1.00;;;;;;6284048;28;20757;-56
2022/07/09 09:19:35;;;;;;;4.60;4.23;;;18.60;1.00;;;;;;6285516;28;20256;-56
2022/07/09 09:22:45;;;;;;;4.30;3.93;;;18.60;1.00;;;;;;6278628;28;20248;-58
2022/07/09 09:25:51;;;;;;;4.13;3.77;;;18.60;1.00;;;;;;6287788;28;20248;-57
2022/07/09 09:28:55;;;;;;;4.83;3.50;;;18.40;1.00;;;;;;6283819;28;20237;-58
2022/07/09 09:31:58;;;;;;;4.57;3.47;;;18.40;1.00;;;;;;6277297;28;20229;-57
2022/07/09 09:35:05;;;;;;;3.70;3.50;;;18.30;1.00;;;;;;6287933;28;20301;-56
2022/07/09 09:38:08;;;;;;;4.40;3.80;;;18.20;1.00;;;;;;6271820;28;20248;-58
2022/07/09 09:41:21;;;;;;;4.37;4.10;;;18.20;1.00;;;;;;6278564;28;20320;-57
2022/07/09 09:44:26;;;;;;;4.30;3.90;;;18.00;1.00;;;;;;6274084;28;20332;-56
2022/07/09 09:47:30;;;;;;;4.00;3.80;;;17.80;1.00;;;;;;6280613;28;21027;-58
2022/07/09 09:50:35;;;;;;;5.17;3.80;;;17.70;1.00;;;;;;6252000;28;20360;-55
2022/07/09 09:53:43;;;;;;;4.77;4.10;;;17.80;1.00;;;;;;6283010;28;20304;-59
2022/07/09 09:56:46;;;;;;;5.90;4.17;;;17.70;1.00;;;;;;6289381;28;20241;-56
2022/07/09 09:59:51;;;;;;;4.20;4.00;;;17.70;1.00;;;;;;6284511;28;20267;-56
2022/07/09 10:02:54;;;;;;;4.90;4.50;;;17.70;1.00;;;;;;6280428;28;20367;-56
2022/07/09 10:05:58;;;;;;;5.43;4.93;;;17.80;1.00;;;;;;6287016;28;20221;-57
2022/07/09 10:09:02;;;;;;;5.00;4.60;;;18.00;1.00;;;;;;6285547;28;20313;-56
2022/07/09 10:12:06;;;;;;;4.80;4.60;;;18.20;1.00;;;;;;6275134;28;20628;-58
2022/07/09 10:15:21;;;;;;;6.13;5.00;;;18.40;1.00;;;;;;6274547;28;20252;-56
2022/07/09 10:18:24;;;;;;;5.33;5.00;;;18.60;1.00;;;;;;6277264;28;20773;-56
2022/07/09 10:21:36;;;;;;;5.53;4.60;;;18.90;1.00;;;;;;6274981;28;20269;-56
2022/07/09 10:24:39;;;;;;;5.13;4.80;;;19.00;1.00;;;;;;6279531;28;20235;-56
2022/07/09 10:27:43;;;;;;;5.17;4.67;;;18.90;1.00;;;;;;6283378;28;20312;-57
2022/07/09 10:30:47;;;;;;;5.17;4.77;;;18.90;1.00;;;;;;6277891;28;20314;-58
2022/07/09 10:34:03;;;;;;;5.20;4.73;;;19.10;1.00;;;;;;6281034;28;20330;-57
2022/07/09 10:37:09;;;;;;;5.50;5.00;;;19.40;1.00;;;;;;6278930;28;20238;-56
2022/07/09 10:40:14;;;;;;;5.43;4.73;;;19.40;1.00;;;;;;6283953;28;20348;-55
2022/07/09 10:43:17;;;;;;;4.67;4.33;;;19.50;1.00;;;;;;6289121;28;20225;-58
2022/07/09 10:46:20;;;;;;;5.07;4.57;;;19.50;1.00;;;;;;6279665;28;20225;-56
2022/07/09 10:49:23;;;;;;;3.90;3.70;;;19.60;1.00;;;;;;6286208;28;20732;-56
2022/07/09 10:52:32;;;;;;;4.33;3.93;;;19.60;1.00;;;;;;6272345;28;20319;-56
2022/07/09 10:55:35;;;;;;;6.17;4.20;;;19.60;1.00;;;;;;6281073;28;20698;-57
2022/07/09 10:58:38;;;;;;;5.63;4.03;;;19.70;1.00;;;;;;6287078;28;20239;-56
2022/07/09 11:01:41;;;;;;;4.03;3.80;;;20.00;1.00;;;;;;6279854;28;20271;-57
2022/07/09 11:04:49;;;;;;;3.80;3.60;;;20.10;1.00;;;;;;6287587;28;20245;-56
2022/07/09 11:07:58;;;;;;;4.13;3.93;;;20.30;1.00;;;;;;6276005;28;20256;-56
2022/07/09 11:11:01;;;;;;;6.00;4.10;;;20.30;1.00;;;;;;6271084;28;20474;-57
2022/07/09 11:14:13;;;;;;;4.03;3.50;;;20.30;1.00;;;;;;6284018;28;20229;-57
2022/07/09 11:17:18;;;;;;;4.40;3.60;;;20.30;1.00;;;;;;6279294;28;20351;-56
2022/07/09 11:20:21;;;;;;;3.87;3.53;;;20.50;1.00;;;;;;6277076;28;20387;-57
2022/07/09 11:23:26;;;;;;;3.63;3.47;;;20.80;1.00;;;;;;6276779;28;20323;-57
2022/07/09 11:26:28;;;;;;;3.10;2.90;;;20.90;1.00;;;;;;6283929;28;20247;-56
2022/07/09 11:29:33;;;;;;;4.80;2.80;;;21.00;1.00;;;;;;6279089;28;20238;-57
2022/07/09 11:32:36;;;;;;;3.20;3.07;;;21.10;1.00;;;;;;6287335;28;20277;-57
2022/07/09 11:35:39;;;;;;;3.43;3.13;;;21.30;1.00;;;;;;6289263;28;20320;-57
2022/07/09 11:38:49;;;;;;;3.83;3.63;;;21.30;1.00;;;;;;6272316;28;20450;-56
2022/07/09 11:41:52;;;;;;;2.97;2.77;;;21.40;1.00;;;;;;6276523;28;20261;-57
2022/07/09 11:44:57;;;;;;;3.33;2.93;;;21.20;1.00;;;;;;6283348;28;20301;-57
2022/07/09 11:48:05;;;;;;;3.47;3.37;;;21.40;1.00;;;;;;6294496;28;20681;-58
2022/07/09 11:51:08;;;;;;;2.83;2.77;;;21.70;1.00;;;;;;6287153;28;20328;-58
2022/07/09 11:54:14;;;;;;;3.10;2.80;;;21.80;1.00;;;;;;6278851;28;20457;-58
2022/07/09 11:57:21;;;;;;;3.10;2.57;;;22.00;1.00;;;;;;6270708;28;20387;-58
2022/07/09 12:00:27;;;;;;;2.40;2.30;;;22.10;1.00;;;;;;6277132;28;20606;-58
2022/07/09 12:03:30;;;;;;;2.97;2.77;;;22.10;1.00;;;;;;6285539;28;20748;-57
2022/07/09 12:06:34;;;;;;;2.67;2.60;;;22.20;1.00;;;;;;6282805;28;20315;-57
2022/07/09 12:09:39;;;;;;;2.90;2.70;;;22.30;1.00;;;;;;6279256;28;20387;-59
2022/07/09 12:12:42;;;;;;;3.30;3.07;;;22.30;1.00;;;;;;6282135;28;20257;-58
2022/07/09 12:15:45;;;;;;;2.73;2.63;;;22.00;1.00;;;;;;6277958;28;20299;-57
2022/07/09 12:18:56;;;;;;;2.80;2.70;;;21.80;1.00;;;;;;6281772;28;20233;-57
2022/07/09 12:21:59;;;;;;;2.97;2.87;;;21.70;1.00;;;;;;6279661;28;20272;-58
2022/07/09 12:25:04;;;;;;;3.53;3.27;;;21.50;1.00;;;;;;6282320;28;20321;-58
2022/07/09 12:28:07;;;;;;;3.40;3.10;;;21.50;1.00;;;;;;6290920;28;20336;-57
2022/07/09 12:31:10;;;;;;;3.80;3.20;;;21.40;1.00;;;;;;6277105;28;20508;-57
2022/07/09 12:34:14;;;;;;;3.87;3.57;;;21.30;1.00;;;;;;6286109;28;20229;-56
2022/07/09 12:37:17;;;;;;;2.80;2.60;;;21.30;1.00;;;;;;6284997;28;20312;-57
2022/07/09 12:40:21;;;;;;;2.53;2.40;;;21.40;1.00;;;;;;6278328;28;20262;-58
2022/07/09 12:43:24;;;;;;;2.80;2.60;;;21.50;1.00;;;;;;6274820;28;20239;-57
2022/07/09 12:46:27;;;;;;;3.27;3.10;;;21.50;1.00;;;;;;6282012;28;20308;-59
2022/07/09 12:49:30;;;;;;;3.50;3.17;;;21.40;1.00;;;;;;6277163;28;20734;-57
2022/07/09 12:52:33;;;;;;;3.60;3.30;;;21.00;1.00;;;;;;6270032;28;20305;-59
2022/07/09 12:55:38;;;;;;;3.57;3.23;;;20.80;1.00;;;;;;6283579;28;20241;-60
2022/07/09 12:59:00;;;;;;;3.40;3.20;;;20.60;1.00;;;;;;6288654;28;20616;-57
2022/07/09 13:02:04;;;;;;;3.23;3.13;;;20.20;1.00;;;;;;6285993;28;20225;-57
2022/07/09 13:05:09;;;;;;;3.47;3.17;;;19.60;1.00;;;;;;6285688;28;20316;-56
2022/07/09 13:08:14;;;;;;;3.80;3.57;;;19.30;1.00;;;;;;6277246;28;20238;-58
2022/07/09 13:11:25;;;;;;;4.10;3.70;;;19.10;1.00;;;;;;6273134;28;20477;-58
2022/07/09 13:14:30;;;;;;;3.67;3.47;;;19.20;1.00;;;;;;6280715;28;20240;-56
2022/07/09 13:17:34;;;;;;;4.00;3.80;;;19.20;1.00;;;;;;6280362;28;20237;-56
2022/07/09 13:20:37;;;;;;;4.97;3.97;;;19.30;1.00;;;;;;6282315;28;20241;-57
2022/07/09 13:23:49;;;;;;;3.67;3.57;;;19.60;1.00;;;;;;6269713;28;20233;-57
2022/07/09 13:26:53;;;;;;;3.20;3.00;;;19.80;1.00;;;;;;6291866;28;20432;-57
2022/07/09 13:29:56;;;;;;;2.77;2.77;;;19.80;1.00;;;;;;6289502;28;20366;-55
2022/07/09 13:32:59;;;;;;;2.60;2.60;;;19.60;1.00;;;;;;6283376;28;20239;-56
2022/07/09 13:36:04;;;;;;;3.00;2.90;;;19.60;1.00;;;;;;6289898;28;20229;-58
2022/07/09 13:39:07;;;;;;;2.50;2.43;;;19.80;1.00;;;;;;6286903;28;20234;-56
2022/07/09 13:42:11;;;;;;;2.50;2.50;;;19.80;1.00;;;;;;6284035;28;20239;-57
2022/07/09 13:45:14;;;;;;;2.77;2.67;;;19.90;1.00;;;;;;6296877;28;20236;-56
2022/07/09 13:48:17;;;;;;;3.20;3.00;;;20.00;1.00;;;;;;6280694;28;20242;-57
2022/07/09 13:51:20;;;;;;;2.37;2.33;;;20.10;1.00;;;;;;6276796;28;20538;-56
2022/07/09 13:54:23;;;;;;;2.40;2.40;;;20.30;1.00;;;;;;6277713;28;20275;-55
2022/07/09 13:57:27;;;;;;;2.80;2.70;;;20.40;1.00;;;;;;6285953;28;20498;-58
2022/07/09 14:00:30;;;;;;;2.60;2.50;;;20.40;1.00;;;;;;6270610;28;20233;-57
2022/07/09 14:03:33;;;;;;;2.50;2.40;;;20.30;1.00;;;;;;6276391;28;20783;-57
2022/07/09 14:06:39;;;;;;;2.50;2.40;;;20.40;1.00;;;;;;6285558;28;20316;-56
2022/07/09 14:09:49;;;;;;;2.70;2.60;;;20.50;1.00;;;;;;6278062;28;20256;-55
2022/07/09 14:12:53;;;;;;;2.40;2.40;;;20.70;1.00;;;;;;6276942;28;20239;-58
2022/07/09 14:15:56;;;;;;;2.77;2.67;;;20.70;1.00;;;;;;6275877;28;21120;-55
2022/07/09 14:18:59;;;;;;;3.40;3.30;;;20.80;1.00;;;;;;6279888;28;20307;-55
2022/07/09 14:22:03;;;;;;;2.63;2.53;;;20.70;1.00;;;;;;6288369;28;20275;-56
2022/07/09 14:25:10;;;;;;;2.97;2.87;;;20.60;1.00;;;;;;6285935;28;20239;-55
2022/07/09 14:28:15;;;;;;;3.13;3.03;;;20.60;1.00;;;;;;6294432;28;20254;-55
2022/07/09 14:31:18;;;;;;;3.17;3.07;;;20.70;1.00;;;;;;6275040;28;20373;-55
2022/07/09 14:34:23;;;;;;;3.00;2.90;;;20.80;1.00;;;;;;6262546;28;20239;-56
2022/07/09 14:37:27;;;;;;;3.00;2.80;;;20.90;1.00;;;;;;6271817;28;20241;-54
2022/07/09 14:40:31;;;;;;;3.30;3.07;;;21.00;1.00;;;;;;6286873;28;20314;-56
2022/07/09 14:43:35;;;;;;;2.57;2.47;;;21.10;1.00;;;;;;6286800;28;20323;-56
2022/07/09 14:46:38;;;;;;;2.10;2.10;;;21.00;1.00;;;;;;6287392;28;20230;-57
2022/07/09 14:49:41;;;;;;;2.60;2.47;;;20.90;1.00;;;;;;6289557;28;20233;-57
2022/07/09 14:52:45;;;;;;;2.33;2.33;;;20.70;1.00;;;;;;6279664;28;20302;-57
2022/07/09 14:55:49;;;;;;;2.70;2.70;;;20.60;1.00;;;;;;6287541;28;20607;-56
2022/07/09 14:58:53;;;;;;;1.93;1.93;;;20.90;1.00;;;;;;6285581;28;20237;-57
2022/07/09 15:01:57;;;;;;;2.17;2.00;;;21.10;1.00;;;;;;6274630;28;20256;-58
2022/07/09 15:05:00;;;;;;;2.50;2.40;;;21.30;1.00;;;;;;6279234;28;20635;-57
2022/07/09 15:08:04;;;;;;;1.90;1.90;;;21.50;1.00;;;;;;6276488;28;20261;-58
2022/07/09 15:11:07;;;;;;;2.30;2.30;;;21.40;1.00;;;;;;6276864;28;20818;-58
2022/07/09 15:14:12;;;;;;;1.87;1.87;;;21.30;1.00;;;;;;6287986;28;20595;-56
2022/07/09 15:17:15;;;;;;;2.00;1.97;;;21.20;1.00;;;;;;6270314;28;20260;-57
2022/07/09 15:20:19;;;;;;;1.93;1.93;;;21.10;1.00;;;;;;6287167;28;20711;-57
2022/07/09 15:23:22;;;;;;;1.60;1.60;;;21.10;1.00;;;;;;6287007;28;20379;-56
2022/07/09 15:26:25;;;;;;;1.90;1.90;;;21.00;1.00;;;;;;6290229;28;20315;-56
2022/07/09 15:29:30;;;;;;;1.50;1.50;;;21.00;1.00;;;;;;6284572;28;20522;-54
2022/07/09 15:32:35;;;;;;;1.73;1.73;;;20.90;1.00;;;;;;6280206;28;20328;-57
2022/07/09 15:35:39;;;;;;;1.50;1.50;;;20.90;1.00;;;;;;6280960;28;20316;-57
2022/07/09 15:38:45;;;;;;;2.00;2.00;;;21.00;1.00;;;;;;6287331;28;20225;-58
2022/07/09 15:41:47;;;;;;;1.83;1.83;;;21.20;1.00;;;;;;6292582;28;20653;-58
2022/07/09 15:45:02;;;;;;;1.77;1.67;;;21.50;1.00;;;;;;6281790;28;20275;-57
2022/07/09 15:48:06;;;;;;;1.70;1.70;;;21.60;1.00;;;;;;6288675;28;20319;-57
2022/07/09 15:51:09;;;;;;;2.10;2.00;;;21.60;1.00;;;;;;6281741;28;20244;-58
2022/07/09 15:54:12;;;;;;;2.00;1.90;;;21.60;1.00;;;;;;6285024;28;20235;-57
2022/07/09 15:57:14;;;;;;;2.83;1.93;;;21.50;1.00;;;;;;6293483;28;20241;-58
2022/07/09 16:00:23;;;;;;;2.27;2.13;;;21.40;1.00;;;;;;6289045;28;20277;-56
2022/07/09 16:03:29;;;;;;;2.30;2.20;;;21.20;1.00;;;;;;6288841;28;20331;-57
2022/07/09 16:06:32;;;;;;;3.03;2.93;;;21.30;1.00;;;;;;6288369;28;20237;-57
2022/07/09 16:09:35;;;;;;;2.50;2.40;;;21.40;1.00;;;;;;6285922;28;20768;-57
2022/07/09 16:12:50;;;;;;;2.43;2.23;;;21.40;1.00;;;;;;6282077;28;20229;-58
2022/07/09 16:15:54;;;;;;;2.20;2.20;;;21.40;1.00;;;;;;6282862;28;20378;-58
2022/07/09 16:18:57;;;;;;;3.50;2.50;;;21.30;1.00;;;;;;6291485;28;20762;-56